createdAt,value
2019-02-19T00:01:07.438Z,69.90
2019-02-19T00:03:35.833Z,69.66
2019-02-19T00:06:04.227Z,69.76
2019-02-19T00:08:32.623Z,69.88
2019-02-19T00:11:01.008Z,69.77
2019-02-19T00:13:29.408Z,69.82
2019-02-19T00:15:57.794Z,69.93
2019-02-19T00:18:26.187Z,69.98
2019-02-19T00:20:54.583Z,69.85
2019-02-19T00:23:23.262Z,69.79
2019-02-19T00:25:51.656Z,69.87
2019-02-19T00:28:20.049Z,69.92
2019-02-19T00:30:48.433Z,69.91
2019-02-19T00:33:16.834Z,70.00
2019-02-19T00:35:45.225Z,69.58
2019-02-19T00:38:13.686Z,69.67
2019-02-19T00:40:42.092Z,69.86
2019-02-19T00:43:10.484Z,69.99
2019-02-19T00:45:38.875Z,70.10
2019-02-19T00:48:07.270Z,69.93
2019-02-19T00:50:35.697Z,70.07
2019-02-19T00:53:04.163Z,70.26
2019-02-19T00:55:32.558Z,70.28
2019-02-19T00:58:00.958Z,70.38
2019-02-19T01:00:29.349Z,70.40
2019-02-19T01:02:57.748Z,70.44
2019-02-19T01:05:26.425Z,70.32
2019-02-19T01:07:54.814Z,70.09
2019-02-19T01:10:23.246Z,70.11
2019-02-19T01:12:51.716Z,70.15
2019-02-19T01:15:25.374Z,70.12
2019-02-19T01:17:50.240Z,69.88
2019-02-19T01:20:18.638Z,69.83
2019-02-19T01:22:47.032Z,69.82
2019-02-19T01:25:15.426Z,69.83
2019-02-19T01:27:43.829Z,69.76
2019-02-19T01:30:12.292Z,69.90
2019-02-19T01:32:40.685Z,70.09
2019-02-19T01:35:09.221Z,70.21
2019-02-19T01:37:37.613Z,70.35
2019-02-19T01:40:08.540Z,70.30
2019-02-19T01:42:36.931Z,70.30
2019-02-19T01:45:07.706Z,70.07
2019-02-19T01:47:36.098Z,70.03
2019-02-19T01:50:06.731Z,70.23
2019-02-19T01:52:35.123Z,69.90
2019-02-19T01:55:04.291Z,70.09
2019-02-19T01:57:32.685Z,69.85
2019-02-19T02:00:01.081Z,69.91
2019-02-19T02:02:29.478Z,69.95
2019-02-19T02:04:57.877Z,70.04
2019-02-19T02:07:26.954Z,69.83
2019-02-19T02:09:55.457Z,69.78
2019-02-19T02:12:23.849Z,69.94
2019-02-19T02:14:52.242Z,69.94
2019-02-19T02:17:21.303Z,69.81
2019-02-19T02:19:49.798Z,69.64
2019-02-19T02:22:18.180Z,69.89
2019-02-19T02:24:46.577Z,69.93
2019-02-19T02:27:14.971Z,69.78
2019-02-19T02:29:43.368Z,70.04
2019-02-19T02:32:11.755Z,70.02
2019-02-19T02:34:40.142Z,70.18
2019-02-19T02:37:08.537Z,70.31
2019-02-19T02:39:36.948Z,70.31
2019-02-19T02:42:05.610Z,70.42
2019-02-19T02:44:34.009Z,70.45
2019-02-19T02:47:02.402Z,70.23
2019-02-19T02:49:30.795Z,70.21
2019-02-19T02:51:59.186Z,70.29
2019-02-19T02:54:27.587Z,70.63
2019-02-19T02:56:55.990Z,70.61
2019-02-19T02:59:24.390Z,70.71
2019-02-19T03:01:52.782Z,70.84
2019-02-19T03:04:21.175Z,70.89
2019-02-19T03:06:51.207Z,70.85
2019-02-19T03:09:19.608Z,70.89
2019-02-19T03:11:48.156Z,70.90
2019-02-19T03:14:16.548Z,70.90
2019-02-19T03:16:45.027Z,70.91
2019-02-19T03:19:13.424Z,70.89
2019-02-19T03:21:41.825Z,71.00
2019-02-19T03:24:10.236Z,71.03
2019-02-19T03:26:38.626Z,71.20
2019-02-19T03:29:07.030Z,71.13
2019-02-19T03:31:35.420Z,71.11
2019-02-19T03:34:03.818Z,71.20
2019-02-19T03:36:32.395Z,71.30
2019-02-19T03:39:00.785Z,71.43
2019-02-19T03:41:29.362Z,71.59
2019-02-19T03:43:57.752Z,71.67
2019-02-19T03:46:27.682Z,71.89
2019-02-19T03:48:56.078Z,72.06
2019-02-19T03:51:24.565Z,72.09
2019-02-19T03:53:52.933Z,72.22
2019-02-19T03:56:21.417Z,72.23
2019-02-19T03:58:49.812Z,72.23
2019-02-19T04:01:18.566Z,72.30
2019-02-19T04:03:46.959Z,72.34
2019-02-19T04:06:16.148Z,72.59
2019-02-19T04:08:44.539Z,72.59
2019-02-19T04:11:13.484Z,72.62
2019-02-19T04:13:41.895Z,72.67
2019-02-19T04:16:10.708Z,72.85
2019-02-19T04:18:39.103Z,73.00
2019-02-19T04:21:07.493Z,73.00
2019-02-19T04:23:35.885Z,73.06
2019-02-19T04:26:04.375Z,73.27
2019-02-19T04:28:32.775Z,73.48
2019-02-19T04:31:01.193Z,73.52
2019-02-19T04:33:29.599Z,73.44
2019-02-19T04:35:58.007Z,73.23
2019-02-19T04:38:26.445Z,73.26
2019-02-19T04:40:54.863Z,73.29
2019-02-19T04:43:23.270Z,73.27
2019-02-19T04:45:51.692Z,73.38
2019-02-19T04:48:20.088Z,73.41
2019-02-19T04:50:48.574Z,73.48
2019-02-19T04:53:17.006Z,73.37
2019-02-19T04:55:45.404Z,73.29
2019-02-19T04:58:13.841Z,73.23
2019-02-19T05:00:42.222Z,73.15
2019-02-19T05:03:10.611Z,73.20
2019-02-19T05:05:39.004Z,73.17
2019-02-19T05:08:07.397Z,72.95
2019-02-19T05:10:35.791Z,72.98
2019-02-19T05:13:04.190Z,73.09
2019-02-19T05:15:32.612Z,72.94
2019-02-19T05:18:01.002Z,72.83
2019-02-19T05:20:29.410Z,72.64
2019-02-19T05:22:57.817Z,72.62
2019-02-19T05:25:26.217Z,72.32
2019-02-19T05:27:54.608Z,72.27
2019-02-19T05:30:23.008Z,72.29
2019-02-19T05:32:51.400Z,72.26
2019-02-19T05:35:19.803Z,72.22
2019-02-19T05:37:48.196Z,72.08
2019-02-19T05:40:16.674Z,72.26
2019-02-19T05:42:45.089Z,72.17
2019-02-19T05:45:13.478Z,72.52
2019-02-19T05:47:41.888Z,72.60
2019-02-19T05:50:10.528Z,72.72
2019-02-19T05:52:38.921Z,72.75
2019-02-19T05:55:08.181Z,72.71
2019-02-19T05:57:36.602Z,72.84
2019-02-19T06:00:09.131Z,72.69
2019-02-19T06:02:37.506Z,72.77
2019-02-19T06:05:07.944Z,72.77
2019-02-19T06:07:36.356Z,72.92
2019-02-19T06:10:07.791Z,72.96
2019-02-19T06:12:36.189Z,72.96
2019-02-19T06:15:06.842Z,73.11
2019-02-19T06:17:35.233Z,73.15
2019-02-19T06:20:04.616Z,73.24
2019-02-19T06:22:33.006Z,73.27
2019-02-19T06:25:01.404Z,73.26
2019-02-19T06:27:29.799Z,73.19
2019-02-19T06:29:58.188Z,73.31
2019-02-19T06:32:26.586Z,73.41
2019-02-19T06:34:54.979Z,73.35
2019-02-19T06:37:23.374Z,73.41
2019-02-19T06:39:51.773Z,73.38
2019-02-19T06:42:20.170Z,73.41
2019-02-19T06:44:48.562Z,73.59
2019-02-19T06:47:16.971Z,73.69
2019-02-19T06:49:45.349Z,73.88
2019-02-19T06:52:13.758Z,73.97
2019-02-19T06:54:42.213Z,74.09
2019-02-19T06:57:10.693Z,74.27
2019-02-19T06:59:39.097Z,74.46
2019-02-19T07:02:25.572Z,74.57
2019-02-19T07:04:54.647Z,74.66
2019-02-19T07:07:23.044Z,74.74
2019-02-19T07:09:51.448Z,74.75
2019-02-19T07:12:19.852Z,74.72
2019-02-19T07:14:48.250Z,74.64
2019-02-19T07:17:17.762Z,74.57
2019-02-19T07:19:46.154Z,74.50
2019-02-19T07:22:14.548Z,74.48
2019-02-19T07:24:42.937Z,74.55
2019-02-19T07:27:11.346Z,74.42
2019-02-19T07:29:39.733Z,74.36
2019-02-19T07:32:08.134Z,74.27
2019-02-19T07:34:36.532Z,74.20
2019-02-19T07:37:04.926Z,74.12
2019-02-19T07:39:33.323Z,74.13
2019-02-19T07:42:01.716Z,73.95
2019-02-19T07:44:30.113Z,73.86
2019-02-19T07:46:58.506Z,73.86
2019-02-19T07:49:26.897Z,73.83
2019-02-19T07:51:55.298Z,73.92
2019-02-19T07:54:23.694Z,73.90
2019-02-19T07:56:52.095Z,73.68
2019-02-19T07:59:20.492Z,73.46
2019-02-19T08:01:48.887Z,73.43
2019-02-19T08:04:17.277Z,73.42
2019-02-19T08:06:45.665Z,73.35
2019-02-19T08:09:14.056Z,73.27
2019-02-19T08:11:42.449Z,73.06
2019-02-19T08:14:10.869Z,73.12
2019-02-19T08:16:39.306Z,72.98
2019-02-19T08:19:07.700Z,72.92
2019-02-19T08:21:36.096Z,72.94
2019-02-19T08:24:04.493Z,72.97
2019-02-19T08:26:32.907Z,73.07
2019-02-19T08:29:11.415Z,73.14
2019-02-19T08:31:31.413Z,73.25
2019-02-19T08:33:59.890Z,73.16
2019-02-19T08:36:29.649Z,73.15
2019-02-19T08:38:58.259Z,73.16
2019-02-19T08:41:26.659Z,73.11
2019-02-19T08:43:55.062Z,72.85
2019-02-19T08:46:23.457Z,72.93
2019-02-19T08:48:51.845Z,72.64
2019-02-19T08:51:20.243Z,72.63
2019-02-19T08:53:48.630Z,72.66
2019-02-19T08:56:17.020Z,72.42
2019-02-19T08:58:45.411Z,72.45
2019-02-19T09:01:13.806Z,72.56
2019-02-19T09:03:42.200Z,72.36
2019-02-19T09:06:10.585Z,72.20
2019-02-19T09:08:38.989Z,72.19
2019-02-19T09:11:07.378Z,72.05
2019-02-19T09:13:35.769Z,71.86
2019-02-19T09:16:04.183Z,71.90
2019-02-19T09:18:32.546Z,71.64
2019-02-19T09:21:00.934Z,71.48
2019-02-19T09:23:29.322Z,71.46
2019-02-19T09:25:57.712Z,71.36
2019-02-19T09:28:26.108Z,71.46
2019-02-19T09:30:54.493Z,71.05
2019-02-19T09:33:23.098Z,70.78
2019-02-19T09:35:51.485Z,71.07
2019-02-19T09:38:19.875Z,70.71
2019-02-19T09:40:48.263Z,70.41
2019-02-19T09:43:16.660Z,70.54
2019-02-19T09:45:45.051Z,70.38
2019-02-19T09:48:13.445Z,70.32
2019-02-19T09:50:41.835Z,70.20
2019-02-19T09:53:10.226Z,70.32
2019-02-19T09:55:38.618Z,70.12
2019-02-19T09:58:07.007Z,69.80
2019-02-19T10:00:35.464Z,69.61
2019-02-19T10:03:03.851Z,69.33
2019-02-19T10:05:32.239Z,69.34
2019-02-19T10:08:00.629Z,69.38
2019-02-19T10:10:29.017Z,68.83
2019-02-19T10:12:57.403Z,68.44
2019-02-19T10:15:25.793Z,68.52
2019-02-19T10:17:54.194Z,68.33
2019-02-19T10:20:22.580Z,68.41
2019-02-19T10:22:50.978Z,68.29
2019-02-19T10:25:19.361Z,68.17
2019-02-19T10:27:47.761Z,67.99
2019-02-19T10:30:17.789Z,67.83
2019-02-19T10:32:46.184Z,67.80
2019-02-19T10:35:14.568Z,67.19
2019-02-19T10:37:42.963Z,66.99
2019-02-19T10:40:18.507Z,67.04
2019-02-19T10:42:46.908Z,66.91
2019-02-19T10:45:20.693Z,67.03
2019-02-19T10:47:49.085Z,66.85
2019-02-19T10:50:17.543Z,66.51
2019-02-19T10:52:46.105Z,66.51
2019-02-19T10:55:14.527Z,66.09
2019-02-19T10:57:42.910Z,65.90
2019-02-19T11:00:19.822Z,65.74
2019-02-19T11:02:48.272Z,65.13
2019-02-19T11:05:16.685Z,65.02
2019-02-19T11:07:45.061Z,64.56
2019-02-19T11:10:14.349Z,64.77
2019-02-19T11:12:42.731Z,64.39
2019-02-19T11:15:12.684Z,64.25
2019-02-19T11:17:41.058Z,63.97
2019-02-19T11:20:21.470Z,64.15
2019-02-19T11:22:49.900Z,63.41
2019-02-19T11:25:18.716Z,62.98
2019-02-19T11:27:47.235Z,62.77
2019-02-19T11:30:17.859Z,62.21
2019-02-19T11:32:46.260Z,61.20
2019-02-19T11:35:14.759Z,60.67
2019-02-19T11:37:43.148Z,59.56
2019-02-19T11:40:12.902Z,58.96
2019-02-19T11:42:41.564Z,58.12
2019-02-19T11:45:12.693Z,57.71
2019-02-19T11:47:41.086Z,57.63
2019-02-19T11:50:12.170Z,57.49
2019-02-19T11:52:40.546Z,57.43
2019-02-19T11:55:14.258Z,56.32
2019-02-19T11:57:42.648Z,56.25
2019-02-19T12:00:17.138Z,56.70
2019-02-19T12:02:45.570Z,56.36
2019-02-19T12:05:13.976Z,55.65
2019-02-19T12:07:42.380Z,56.02
2019-02-19T12:10:12.059Z,56.17
2019-02-19T12:12:40.604Z,56.11
2019-02-19T12:15:11.772Z,56.30
2019-02-19T12:17:40.166Z,56.57
2019-02-19T12:20:13.461Z,56.61
2019-02-19T12:22:41.856Z,56.62
2019-02-19T12:25:10.684Z,56.48
2019-02-19T12:27:39.147Z,56.46
2019-02-19T12:30:11.071Z,56.74
2019-02-19T12:32:39.463Z,56.79
2019-02-19T12:35:08.606Z,57.24
2019-02-19T12:37:36.989Z,56.93
2019-02-19T12:40:08.415Z,56.86
2019-02-19T12:42:36.820Z,56.94
2019-02-19T12:45:07.588Z,56.70
2019-02-19T12:47:35.982Z,56.62
2019-02-19T12:50:07.362Z,56.47
2019-02-19T12:52:35.778Z,56.65
2019-02-19T12:55:04.472Z,56.72
2019-02-19T12:57:32.857Z,56.85
2019-02-19T13:00:01.295Z,56.68
2019-02-19T13:02:29.667Z,56.62
2019-02-19T13:04:58.060Z,56.71
2019-02-19T13:07:26.475Z,56.61
2019-02-19T13:09:54.864Z,56.37
2019-02-19T13:12:23.253Z,56.30
2019-02-19T13:14:51.644Z,56.19
2019-02-19T13:17:20.033Z,56.63
2019-02-19T13:19:48.450Z,56.61
2019-02-19T13:22:16.835Z,56.48
2019-02-19T13:24:45.266Z,56.10
2019-02-19T13:27:13.734Z,56.07
2019-02-19T13:29:42.123Z,55.84
2019-02-19T13:32:10.519Z,56.13
2019-02-19T13:34:38.911Z,55.98
2019-02-19T13:37:07.372Z,56.22
2019-02-19T13:39:35.758Z,56.19
2019-02-19T13:42:04.148Z,55.81
2019-02-19T13:44:32.541Z,55.37
2019-02-19T13:47:00.928Z,55.16
2019-02-19T13:49:29.313Z,54.96
2019-02-19T13:51:59.348Z,54.89
2019-02-19T13:54:28.810Z,54.45
2019-02-19T13:56:57.202Z,54.79
2019-02-19T13:59:25.667Z,54.89
2019-02-19T14:01:54.088Z,54.92
2019-02-19T14:04:22.470Z,54.68
2019-02-19T14:06:50.859Z,54.33
2019-02-19T14:09:19.295Z,54.32
2019-02-19T14:11:47.724Z,54.48
2019-02-19T14:14:27.042Z,54.60
2019-02-19T14:16:57.204Z,54.52
2019-02-19T14:19:27.248Z,54.49
2019-02-19T14:21:57.277Z,54.41
2019-02-19T14:24:39.368Z,54.48
2019-02-19T14:27:18.062Z,54.79
2019-02-19T14:29:53.881Z,55.00
2019-02-19T14:32:40.393Z,54.84
2019-02-19T14:35:23.062Z,54.62
2019-02-19T14:37:53.121Z,54.75
2019-02-19T14:40:35.458Z,54.84
2019-02-19T14:43:14.297Z,54.64
2019-02-19T14:46:02.140Z,54.55
2019-02-19T14:48:43.810Z,54.62
2019-02-19T14:51:13.843Z,54.79
2019-02-19T14:53:43.951Z,54.84
2019-02-19T14:56:16.708Z,54.84
2019-02-19T14:59:02.929Z,54.98
2019-02-19T15:01:45.123Z,54.99
2019-02-19T15:04:20.674Z,54.64
2019-02-19T15:06:50.701Z,54.95
2019-02-19T15:09:36.999Z,55.16
2019-02-19T15:12:12.506Z,55.21
2019-02-19T15:14:45.257Z,55.24
2019-02-19T15:17:31.360Z,55.34
2019-02-19T15:20:04.260Z,55.12
2019-02-19T15:22:49.071Z,54.99
2019-02-19T15:25:25.211Z,55.11
2019-02-19T15:28:01.248Z,55.17
2019-02-19T15:30:39.741Z,55.39
2019-02-19T15:33:09.767Z,55.43
2019-02-19T15:35:42.869Z,55.42
2019-02-19T15:38:24.909Z,55.41
2019-02-19T15:41:12.988Z,55.55
2019-02-19T15:43:48.943Z,55.55
2019-02-19T15:46:21.643Z,55.66
2019-02-19T15:49:08.011Z,55.54
2019-02-19T15:51:38.051Z,55.66
2019-02-19T15:54:17.248Z,55.70
2019-02-19T15:57:02.583Z,56.03
2019-02-19T15:59:32.775Z,56.13
2019-02-19T16:02:05.231Z,55.89
2019-02-19T16:04:35.275Z,56.28
2019-02-19T16:07:21.416Z,56.21
2019-02-19T16:09:57.189Z,56.36
2019-02-19T16:12:32.725Z,56.02
2019-02-19T16:15:02.782Z,56.12
2019-02-19T16:17:39.126Z,55.97
2019-02-19T16:20:10.904Z,56.02
2019-02-19T16:22:56.784Z,56.91
2019-02-19T16:25:32.564Z,57.40
2019-02-19T16:28:02.633Z,57.76
2019-02-19T16:30:47.459Z,58.01
2019-02-19T16:33:23.487Z,58.33
2019-02-19T16:35:56.461Z,58.62
2019-02-19T16:38:38.103Z,58.75
2019-02-19T16:41:10.539Z,59.10
2019-02-19T16:43:43.227Z,59.45
2019-02-19T16:46:25.147Z,59.60
2019-02-19T16:49:00.901Z,59.70
2019-02-19T16:51:30.934Z,59.66
2019-02-19T16:54:04.048Z,59.04
2019-02-19T16:56:36.782Z,58.72
2019-02-19T16:59:07.717Z,58.05
2019-02-19T17:01:41.071Z,57.80
2019-02-19T17:04:29.232Z,57.43
2019-02-19T17:07:11.304Z,57.39
2019-02-19T17:09:44.340Z,57.36
2019-02-19T17:12:30.720Z,57.40
2019-02-19T17:15:06.474Z,57.63
2019-02-19T17:17:39.225Z,58.18
2019-02-19T17:20:28.795Z,58.63
2019-02-19T17:22:50.850Z,59.19
2019-02-19T17:25:20.896Z,59.24
2019-02-19T17:27:59.601Z,59.90
2019-02-19T17:30:38.348Z,60.09
2019-02-19T17:33:26.571Z,60.44
2019-02-19T17:35:59.443Z,60.70
2019-02-19T17:38:32.167Z,60.68
2019-02-19T17:41:14.187Z,60.76
2019-02-19T17:43:53.274Z,61.00
2019-02-19T17:46:41.397Z,61.46
2019-02-19T17:49:23.334Z,61.64
2019-02-19T17:52:05.066Z,61.63
2019-02-19T17:54:35.109Z,61.83
2019-02-19T17:57:21.548Z,61.72
2019-02-19T18:00:00.635Z,61.51
2019-02-19T18:02:42.574Z,61.59
2019-02-19T18:05:27.569Z,61.74
2019-02-19T18:08:03.835Z,61.77
2019-02-19T18:10:33.865Z,61.97
2019-02-19T18:13:03.903Z,61.87
2019-02-19T18:15:40.079Z,61.77
2019-02-19T18:18:12.997Z,61.77
2019-02-19T18:20:47.312Z,61.83
2019-02-19T18:23:11.577Z,62.08
2019-02-19T18:25:39.967Z,62.17
2019-02-19T18:28:08.364Z,62.27
2019-02-19T18:30:36.779Z,62.27
2019-02-19T18:33:05.169Z,62.37
2019-02-19T18:35:33.930Z,62.50
2019-02-19T18:38:02.335Z,62.75
2019-02-19T18:40:30.808Z,62.68
2019-02-19T18:42:59.204Z,62.68
2019-02-19T18:45:27.695Z,62.66
2019-02-19T18:47:56.086Z,62.76
2019-02-19T18:50:24.494Z,62.73
2019-02-19T18:52:52.878Z,62.64
2019-02-19T18:55:21.269Z,62.61
2019-02-19T18:57:50.645Z,62.71
2019-02-19T19:00:19.108Z,62.87
2019-02-19T19:02:47.513Z,62.94
2019-02-19T19:05:15.917Z,63.04
2019-02-19T19:07:44.309Z,63.22
2019-02-19T19:10:12.865Z,63.36
2019-02-19T19:12:41.292Z,63.35
2019-02-19T19:15:10.566Z,63.45
2019-02-19T19:17:38.974Z,63.62
2019-02-19T19:20:10.247Z,63.66
2019-02-19T19:22:38.640Z,63.62
2019-02-19T19:25:07.781Z,63.67
2019-02-19T19:27:36.177Z,63.69
2019-02-19T19:30:07.454Z,63.92
2019-02-19T19:32:35.841Z,64.07
2019-02-19T19:35:05.977Z,64.20
2019-02-19T19:37:34.370Z,64.33
2019-02-19T19:40:02.758Z,64.50
2019-02-19T19:42:31.150Z,64.52
2019-02-19T19:45:00.478Z,64.61
2019-02-19T19:47:28.869Z,64.77
2019-02-19T19:49:57.256Z,64.99
2019-02-19T19:52:25.649Z,64.98
2019-02-19T19:54:54.037Z,64.87
2019-02-19T19:57:22.461Z,64.80
2019-02-19T19:59:50.848Z,64.92
2019-02-19T20:02:20.069Z,64.91
2019-02-19T20:04:48.547Z,65.06
2019-02-19T20:07:16.977Z,65.03
2019-02-19T20:09:45.369Z,65.12
2019-02-19T20:12:13.772Z,65.18
2019-02-19T20:14:42.196Z,65.23
2019-02-19T20:17:10.599Z,65.48
2019-02-19T20:19:38.984Z,65.48
2019-02-19T20:22:07.418Z,65.66
2019-02-19T20:24:35.822Z,65.66
2019-02-19T20:27:04.240Z,65.85
2019-02-19T20:29:32.668Z,65.97
2019-02-19T20:32:01.056Z,66.14
2019-02-19T20:34:29.481Z,66.23
2019-02-19T20:36:57.867Z,66.40
2019-02-19T20:39:26.287Z,66.65
2019-02-19T20:41:54.749Z,66.88
2019-02-19T20:44:23.171Z,67.28
2019-02-19T20:46:51.562Z,67.12
2019-02-19T20:49:20.075Z,67.16
2019-02-19T20:51:48.548Z,67.15
2019-02-19T20:54:16.947Z,67.09
2019-02-19T20:56:45.343Z,67.14
2019-02-19T20:59:13.769Z,67.09
2019-02-19T21:01:42.264Z,67.41
2019-02-19T21:04:10.677Z,67.28
2019-02-19T21:06:39.070Z,67.42
2019-02-19T21:09:07.544Z,67.49
2019-02-19T21:11:35.943Z,67.56
2019-02-19T21:14:04.524Z,67.61
2019-02-19T21:16:32.922Z,67.76
2019-02-19T21:19:01.491Z,67.92
2019-02-19T21:21:29.900Z,68.15
2019-02-19T21:23:59.134Z,68.22
2019-02-19T21:26:28.461Z,68.36
2019-02-19T21:28:56.865Z,68.43
2019-02-19T21:31:25.274Z,68.55
2019-02-19T21:33:53.696Z,68.51
2019-02-19T21:36:22.108Z,68.57
2019-02-19T21:38:52.418Z,69.31
2019-02-19T21:41:20.640Z,69.28
2019-02-19T21:43:49.034Z,69.51
2019-02-19T21:46:17.430Z,69.46
2019-02-19T21:48:48.137Z,69.38
2019-02-19T21:51:16.406Z,69.28
2019-02-19T21:53:44.796Z,69.36
2019-02-19T21:56:13.192Z,69.65
2019-02-19T21:58:41.592Z,70.24
2019-02-19T22:01:10.015Z,70.24
2019-02-19T22:03:38.465Z,70.12
2019-02-19T22:06:06.863Z,70.20
2019-02-19T22:08:35.280Z,70.29
2019-02-19T22:11:03.707Z,70.31
2019-02-19T22:13:32.466Z,70.38
2019-02-19T22:16:00.859Z,70.58
2019-02-19T22:18:29.248Z,70.72
2019-02-19T22:21:02.249Z,70.85
2019-02-19T22:23:30.644Z,70.92
2019-02-19T22:25:59.075Z,71.03
2019-02-19T22:28:27.464Z,71.09
2019-02-19T22:30:55.868Z,71.08
2019-02-19T22:33:24.260Z,71.14
2019-02-19T22:35:52.668Z,71.25
2019-02-19T22:38:21.063Z,71.33
2019-02-19T22:40:55.188Z,71.40
2019-02-19T22:43:19.651Z,71.42
2019-02-19T22:45:48.036Z,71.53
2019-02-19T22:48:16.432Z,71.80
2019-02-19T22:50:44.816Z,71.96
2019-02-19T22:53:31.049Z,72.01
2019-02-19T22:56:01.225Z,71.99
2019-02-19T22:58:29.617Z,71.74
2019-02-19T23:01:02.413Z,71.76
2019-02-19T23:03:30.901Z,71.62
2019-02-19T23:05:59.291Z,71.62
2019-02-19T23:08:27.691Z,71.52
2019-02-19T23:10:56.120Z,71.43
2019-02-19T23:13:24.509Z,71.20
2019-02-19T23:15:52.926Z,71.17
2019-02-19T23:18:21.322Z,71.07
2019-02-19T23:20:49.745Z,71.04
2019-02-19T23:23:18.135Z,71.30
2019-02-19T23:25:46.551Z,71.14
2019-02-19T23:28:14.944Z,71.38
2019-02-19T23:30:43.391Z,71.56
2019-02-19T23:33:11.862Z,71.73
2019-02-19T23:35:47.681Z,71.76
2019-02-19T23:38:16.106Z,71.74
2019-02-19T23:40:44.493Z,71.75
2019-02-19T23:43:12.890Z,71.64
2019-02-19T23:45:41.279Z,71.92
2019-02-19T23:48:09.706Z,71.86
2019-02-19T23:50:38.099Z,71.89
2019-02-19T23:53:06.489Z,71.86
2019-02-19T23:55:34.936Z,71.59
2019-02-19T23:58:03.360Z,71.33
